createdAt,value
2023-04-09T00:00:03.152Z,7.99
2023-04-09T00:02:42.906Z,7.76
2023-04-09T00:05:14.410Z,7.57
2023-04-09T00:07:44.793Z,7.65
2023-04-09T00:10:15.008Z,7.77
2023-04-09T00:12:47.848Z,7.72
2023-04-09T00:15:30.075Z,7.70
2023-04-09T00:18:02.052Z,7.69
2023-04-09T00:20:32.348Z,7.68
2023-04-09T00:23:02.580Z,7.65
2023-04-09T00:25:32.729Z,7.59
2023-04-09T00:28:05.678Z,7.63
2023-04-09T00:30:36.033Z,7.66
2023-04-09T00:33:06.668Z,7.65
2023-04-09T00:35:36.988Z,7.45
2023-04-09T00:38:07.153Z,7.31
2023-04-09T00:40:37.397Z,7.44
2023-04-09T00:43:10.249Z,7.43
2023-04-09T00:45:41.104Z,7.39
2023-04-09T00:48:12.004Z,7.41
2023-04-09T00:50:42.246Z,7.38
2023-04-09T00:53:15.288Z,7.42
2023-04-09T00:55:46.076Z,7.34
2023-04-09T00:58:19.095Z,7.34
2023-04-09T01:00:49.560Z,7.16
2023-04-09T01:03:20.386Z,7.20
2023-04-09T01:05:57.654Z,7.16
2023-04-09T01:08:36.389Z,7.20
2023-04-09T01:11:13.168Z,7.28
2023-04-09T01:13:52.530Z,7.27
2023-04-09T01:16:26.491Z,7.35
2023-04-09T01:19:02.712Z,7.37
2023-04-09T01:21:36.795Z,7.42
2023-04-09T01:24:22.720Z,7.41
2023-04-09T01:27:03.346Z,7.36
2023-04-09T01:29:58.766Z,7.40
2023-04-09T01:32:32.667Z,7.23
2023-04-09T01:35:04.124Z,7.25
2023-04-09T01:37:35.094Z,7.47
2023-04-09T01:40:05.583Z,7.46
2023-04-09T01:42:36.660Z,7.39
2023-04-09T01:45:10.541Z,7.47
2023-04-09T01:47:41.873Z,7.46
2023-04-09T01:50:13.362Z,7.47
2023-04-09T01:52:44.039Z,7.52
2023-04-09T01:55:14.281Z,7.54
2023-04-09T01:57:44.632Z,7.54
2023-04-09T02:00:18.538Z,7.53
2023-04-09T02:02:57.237Z,7.49
2023-04-09T02:05:32.282Z,7.44
2023-04-09T02:08:06.091Z,7.53
2023-04-09T02:10:38.853Z,7.33
2023-04-09T02:13:12.670Z,7.48
2023-04-09T02:15:46.717Z,7.43
2023-04-09T02:18:27.564Z,7.37
2023-04-09T02:20:58.139Z,7.40
2023-04-09T02:23:28.869Z,7.35
2023-04-09T02:25:59.584Z,7.30
2023-04-09T02:28:29.719Z,7.30
2023-04-09T02:31:02.578Z,7.23
2023-04-09T02:33:33.736Z,7.20
2023-04-09T02:36:03.950Z,7.15
2023-04-09T02:38:34.636Z,7.20
2023-04-09T02:41:05.002Z,7.18
2023-04-09T02:43:35.171Z,7.08
2023-04-09T02:46:08.231Z,7.09
2023-04-09T02:48:39.165Z,7.12
2023-04-09T02:51:10.608Z,6.97
2023-04-09T02:53:41.401Z,7.13
2023-04-09T02:56:11.672Z,7.11
2023-04-09T02:58:41.932Z,7.06
2023-04-09T03:01:14.889Z,7.07
2023-04-09T03:03:46.501Z,7.15
2023-04-09T03:06:17.018Z,7.20
2023-04-09T03:08:47.396Z,7.11
2023-04-09T03:11:17.677Z,7.21
2023-04-09T03:13:47.889Z,7.20
2023-04-09T03:16:20.780Z,7.19
2023-04-09T03:18:51.234Z,7.18
2023-04-09T03:21:21.644Z,7.06
2023-04-09T03:23:53.702Z,7.21
2023-04-09T03:26:24.085Z,7.19
2023-04-09T03:28:54.641Z,7.14
2023-04-09T03:31:27.846Z,7.13
2023-04-09T03:33:58.069Z,7.09
2023-04-09T03:36:29.036Z,6.85
2023-04-09T03:39:03.381Z,7.02
2023-04-09T03:41:40.316Z,6.85
2023-04-09T03:44:14.884Z,6.85
2023-04-09T03:47:26.369Z,6.81
2023-04-09T03:49:57.922Z,6.63
2023-04-09T03:52:31.418Z,6.60
2023-04-09T03:55:07.683Z,6.56
2023-04-09T03:57:37.627Z,6.66
2023-04-09T04:00:12.247Z,6.68
2023-04-09T04:03:11.762Z,6.65
2023-04-09T04:05:57.546Z,6.67
2023-04-09T04:08:28.132Z,6.67
2023-04-09T04:10:58.493Z,6.64
2023-04-09T04:13:28.925Z,6.63
2023-04-09T04:16:00.737Z,6.55
2023-04-09T04:18:34.009Z,6.55
2023-04-09T04:21:04.155Z,6.47
2023-04-09T04:23:37.356Z,6.38
2023-04-09T04:26:20.045Z,6.31
2023-04-09T04:28:50.407Z,6.30
2023-04-09T04:31:35.792Z,6.27
2023-04-09T04:34:08.766Z,6.19
2023-04-09T04:36:40.262Z,6.04
2023-04-09T04:39:11.490Z,6.18
2023-04-09T04:42:04.555Z,6.22
2023-04-09T04:44:35.518Z,6.25
2023-04-09T04:47:16.282Z,6.19
2023-04-09T04:49:49.256Z,6.27
2023-04-09T04:52:20.824Z,6.35
2023-04-09T04:54:54.921Z,6.29
2023-04-09T04:57:27.260Z,6.50
2023-04-09T04:59:57.908Z,6.55
2023-04-09T05:02:30.434Z,6.52
2023-04-09T05:05:24.156Z,6.65
2023-04-09T05:07:57.342Z,6.39
2023-04-09T05:10:27.779Z,6.72
2023-04-09T05:13:01.058Z,6.79
2023-04-09T05:15:37.010Z,6.78
2023-04-09T05:18:08.383Z,6.89
2023-04-09T05:20:42.160Z,6.75
2023-04-09T05:23:13.236Z,6.69
2023-04-09T05:25:46.316Z,6.68
2023-04-09T05:28:27.487Z,6.64
2023-04-09T05:31:13.264Z,6.56
2023-04-09T05:33:49.390Z,6.38
2023-04-09T05:36:27.951Z,6.59
2023-04-09T05:38:58.096Z,6.53
2023-04-09T05:41:28.368Z,6.25
2023-04-09T05:44:18.992Z,6.30
2023-04-09T05:46:51.366Z,6.40
2023-04-09T05:49:27.498Z,6.52
2023-04-09T05:52:02.897Z,6.57
2023-04-09T05:54:35.560Z,6.44
2023-04-09T05:57:07.518Z,6.70
2023-04-09T05:59:40.763Z,6.73
2023-04-09T06:02:11.278Z,6.78
2023-04-09T06:04:41.768Z,6.86
2023-04-09T06:07:15.660Z,6.93
2023-04-09T06:09:47.208Z,6.94
2023-04-09T06:12:17.678Z,6.96
2023-04-09T06:14:47.974Z,7.06
2023-04-09T06:17:18.323Z,7.08
2023-04-09T06:19:48.948Z,7.15
2023-04-09T06:22:21.770Z,7.19
2023-04-09T06:24:52.073Z,7.27
2023-04-09T06:27:23.158Z,7.40
2023-04-09T06:29:53.038Z,7.48
2023-04-09T06:32:23.520Z,7.54
2023-04-09T06:34:53.772Z,7.55
2023-04-09T06:37:26.921Z,7.64
2023-04-09T06:40:00.855Z,7.23
2023-04-09T06:42:31.967Z,7.75
2023-04-09T06:45:13.686Z,7.83
2023-04-09T06:47:44.129Z,7.72
2023-04-09T06:50:14.595Z,7.95
2023-04-09T06:52:47.591Z,8.08
2023-04-09T06:55:17.850Z,8.22
2023-04-09T06:57:48.063Z,8.44
2023-04-09T07:00:18.751Z,8.56
2023-04-09T07:02:49.745Z,8.72
2023-04-09T07:05:20.405Z,8.85
2023-04-09T07:07:53.424Z,8.99
2023-04-09T07:10:23.685Z,9.16
2023-04-09T07:12:53.979Z,9.30
2023-04-09T07:15:24.247Z,9.39
2023-04-09T07:17:55.046Z,9.32
2023-04-09T07:20:25.350Z,9.39
2023-04-09T07:22:59.331Z,9.58
2023-04-09T07:25:32.771Z,9.62
2023-04-09T07:28:03.273Z,9.59
2023-04-09T07:30:33.698Z,9.74
2023-04-09T07:33:04.389Z,9.83
2023-04-09T07:35:35.671Z,9.74
2023-04-09T07:38:08.667Z,9.83
2023-04-09T07:40:39.711Z,9.75
2023-04-09T07:43:09.615Z,9.99
2023-04-09T07:45:39.869Z,10.02
2023-04-09T07:48:10.959Z,10.09
2023-04-09T07:50:41.092Z,10.23
2023-04-09T07:53:14.556Z,10.21
2023-04-09T07:55:44.786Z,10.24
2023-04-09T07:58:15.063Z,10.08
2023-04-09T08:00:45.292Z,10.28
2023-04-09T08:03:16.073Z,10.30
2023-04-09T08:05:46.799Z,10.30
2023-04-09T08:08:20.172Z,10.35
2023-04-09T08:10:50.451Z,10.38
2023-04-09T08:13:20.793Z,10.39
2023-04-09T08:15:51.092Z,10.40
2023-04-09T08:18:21.342Z,10.40
2023-04-09T08:20:51.575Z,10.63
2023-04-09T08:23:24.392Z,10.76
2023-04-09T08:25:54.582Z,10.90
2023-04-09T08:28:24.813Z,11.00
2023-04-09T08:30:54.992Z,11.15
2023-04-09T08:33:25.225Z,11.12
2023-04-09T08:35:55.574Z,11.32
2023-04-09T08:38:28.412Z,11.26
2023-04-09T08:40:58.627Z,11.16
2023-04-09T08:43:47.212Z,11.26
2023-04-09T08:46:22.300Z,11.30
2023-04-09T08:48:54.663Z,11.25
2023-04-09T08:51:28.985Z,11.44
2023-04-09T08:54:04.720Z,11.42
2023-04-09T08:56:36.115Z,11.39
2023-04-09T08:59:06.545Z,11.45
2023-04-09T09:01:37.035Z,11.61
2023-04-09T09:04:08.741Z,11.68
2023-04-09T09:06:41.283Z,11.72
2023-04-09T09:09:16.029Z,11.71
2023-04-09T09:11:48.733Z,11.70
2023-04-09T09:14:20.477Z,11.64
2023-04-09T09:17:08.901Z,11.65
2023-04-09T09:19:39.189Z,11.77
2023-04-09T09:22:12.878Z,11.87
2023-04-09T09:24:52.968Z,11.83
2023-04-09T09:27:37.268Z,12.10
2023-04-09T09:30:09.057Z,12.38
2023-04-09T09:32:40.088Z,12.52
2023-04-09T09:35:10.915Z,12.74
2023-04-09T09:37:41.619Z,12.68
2023-04-09T09:40:30.222Z,13.01
2023-04-09T09:43:00.999Z,13.16
2023-04-09T09:45:32.646Z,13.13
2023-04-09T09:48:04.386Z,13.20
2023-04-09T09:50:36.582Z,13.39
2023-04-09T09:53:09.087Z,13.35
2023-04-09T09:55:44.508Z,13.38
2023-04-09T09:58:20.567Z,13.48
2023-04-09T10:00:51.991Z,13.43
2023-04-09T10:03:26.452Z,13.47
2023-04-09T10:06:00.641Z,13.54
2023-04-09T10:08:34.373Z,13.66
2023-04-09T10:11:09.303Z,13.66
2023-04-09T10:13:43.339Z,13.77
2023-04-09T10:16:14.588Z,13.80
2023-04-09T10:18:45.801Z,13.32
2023-04-09T10:21:29.119Z,13.50
2023-04-09T10:24:00.371Z,13.53
2023-04-09T10:26:36.657Z,13.60
2023-04-09T10:29:09.915Z,13.56
2023-04-09T10:31:51.797Z,13.51
2023-04-09T10:34:24.859Z,13.30
2023-04-09T10:36:58.734Z,13.16
2023-04-09T10:39:30.949Z,13.06
2023-04-09T10:42:05.391Z,13.13
2023-04-09T10:44:38.321Z,12.93
2023-04-09T10:47:08.901Z,13.06
2023-04-09T10:49:41.142Z,13.18
2023-04-09T10:52:14.167Z,13.19
2023-04-09T10:54:47.334Z,13.34
2023-04-09T10:57:26.633Z,13.53
2023-04-09T10:59:58.285Z,13.59
2023-04-09T11:03:04.827Z,13.64
2023-04-09T11:05:43.548Z,13.59
2023-04-09T11:08:15.993Z,13.56
2023-04-09T11:10:49.772Z,13.71
2023-04-09T11:13:24.217Z,14.00
2023-04-09T11:15:54.649Z,14.09
2023-04-09T11:18:26.147Z,14.11
2023-04-09T11:20:58.569Z,13.79
2023-04-09T11:23:32.531Z,13.80
2023-04-09T11:26:03.075Z,13.80
2023-04-09T11:28:38.517Z,13.90
2023-04-09T11:31:09.319Z,13.92
2023-04-09T11:33:42.380Z,13.90
2023-04-09T11:36:12.865Z,14.13
2023-04-09T11:38:43.129Z,14.19
2023-04-09T11:41:14.388Z,14.06
2023-04-09T11:43:47.465Z,14.40
2023-04-09T11:46:20.393Z,14.35
2023-04-09T11:48:52.033Z,14.44
2023-04-09T11:51:22.917Z,14.70
2023-04-09T11:53:53.429Z,14.80
2023-04-09T11:56:23.841Z,14.85
2023-04-09T11:58:58.144Z,14.99
2023-04-09T12:01:33.584Z,15.33
2023-04-09T12:04:05.875Z,15.31
2023-04-09T12:06:37.026Z,15.43
2023-04-09T12:09:07.384Z,15.72
2023-04-09T12:11:42.324Z,15.93
2023-04-09T12:14:19.776Z,16.06
2023-04-09T12:16:54.796Z,15.98
2023-04-09T12:19:28.671Z,15.99
2023-04-09T12:21:59.797Z,15.80
2023-04-09T12:24:29.659Z,15.69
2023-04-09T12:27:00.296Z,15.47
2023-04-09T12:29:33.853Z,15.46
2023-04-09T12:32:04.254Z,15.32
2023-04-09T12:34:34.612Z,15.20
2023-04-09T12:37:05.238Z,15.15
2023-04-09T12:39:35.686Z,15.04
2023-04-09T12:42:05.936Z,15.02
2023-04-09T12:44:39.439Z,15.07
2023-04-09T12:47:09.685Z,15.21
2023-04-09T12:49:42.190Z,15.23
2023-04-09T12:52:12.784Z,15.38
2023-04-09T12:54:43.119Z,15.37
2023-04-09T12:57:13.289Z,15.33
2023-04-09T12:59:46.112Z,15.24
2023-04-09T13:02:16.688Z,15.15
2023-04-09T13:04:47.424Z,15.08
2023-04-09T13:07:19.433Z,15.05
2023-04-09T13:09:50.724Z,15.03
2023-04-09T13:12:21.792Z,14.96
2023-04-09T13:14:57.165Z,14.97
2023-04-09T13:17:27.518Z,15.03
2023-04-09T13:19:57.784Z,15.34
2023-04-09T13:22:27.958Z,15.54
2023-04-09T13:24:58.065Z,15.56
2023-04-09T13:27:28.290Z,15.52
2023-04-09T13:30:01.307Z,15.35
2023-04-09T13:32:31.489Z,15.26
2023-04-09T13:35:01.664Z,15.00
2023-04-09T13:37:32.079Z,14.83
2023-04-09T13:40:02.221Z,14.45
2023-04-09T13:42:32.801Z,14.68
2023-04-09T13:45:05.691Z,14.45
2023-04-09T13:47:36.073Z,14.61
2023-04-09T13:50:06.671Z,14.68
2023-04-09T13:52:36.849Z,14.87
2023-04-09T13:55:07.904Z,15.02
2023-04-09T13:57:39.812Z,15.25
2023-04-09T14:00:14.157Z,15.10
2023-04-09T14:02:44.918Z,15.32
2023-04-09T14:05:15.229Z,15.66
2023-04-09T14:07:45.450Z,15.88
2023-04-09T14:10:16.232Z,16.11
2023-04-09T14:12:46.485Z,16.14
2023-04-09T14:15:19.345Z,16.00
2023-04-09T14:17:49.527Z,15.97
2023-04-09T14:20:21.409Z,15.86
2023-04-09T14:22:51.948Z,15.87
2023-04-09T14:25:22.109Z,15.71
2023-04-09T14:27:52.398Z,15.52
2023-04-09T14:30:26.050Z,15.45
2023-04-09T14:32:56.405Z,15.34
2023-04-09T14:35:27.050Z,15.29
2023-04-09T14:37:57.513Z,15.14
2023-04-09T14:40:27.796Z,15.21
2023-04-09T14:42:57.980Z,15.10
2023-04-09T14:45:31.094Z,14.94
2023-04-09T14:48:01.392Z,14.96
2023-04-09T14:50:34.214Z,14.93
2023-04-09T14:53:04.405Z,14.94
2023-04-09T14:55:34.672Z,14.90
2023-04-09T14:58:07.775Z,14.86
2023-04-09T15:00:41.553Z,14.90
2023-04-09T15:03:12.363Z,14.92
2023-04-09T15:05:42.471Z,14.91
2023-04-09T15:08:12.796Z,14.92
2023-04-09T15:10:43.246Z,14.85
2023-04-09T15:13:13.611Z,14.73
2023-04-09T15:15:46.845Z,14.43
2023-04-09T15:18:17.041Z,14.61
2023-04-09T15:20:47.576Z,14.54
2023-04-09T15:23:17.793Z,14.51
2023-04-09T15:25:48.009Z,14.48
2023-04-09T15:28:18.203Z,14.48
2023-04-09T15:30:50.986Z,14.46
2023-04-09T15:33:21.376Z,14.47
2023-04-09T15:35:51.640Z,14.37
2023-04-09T15:38:22.346Z,14.28
2023-04-09T15:40:52.517Z,14.26
2023-04-09T15:43:23.546Z,14.23
2023-04-09T15:45:56.405Z,14.21
2023-04-09T15:48:26.758Z,14.13
2023-04-09T15:50:57.042Z,14.00
2023-04-09T15:53:29.573Z,14.02
2023-04-09T15:56:00.082Z,14.10
2023-04-09T15:58:30.324Z,14.11
2023-04-09T16:01:03.167Z,14.13
2023-04-09T16:03:37.342Z,14.09
2023-04-09T16:06:08.915Z,14.07
2023-04-09T16:08:42.973Z,14.07
2023-04-09T16:11:13.724Z,13.95
2023-04-09T16:13:43.961Z,13.81
2023-04-09T16:16:16.728Z,13.68
2023-04-09T16:18:47.301Z,13.58
2023-04-09T16:21:17.765Z,13.47
2023-04-09T16:23:48.016Z,13.40
2023-04-09T16:26:18.456Z,13.24
2023-04-09T16:28:48.698Z,13.18
2023-04-09T16:31:21.549Z,13.27
2023-04-09T16:33:51.921Z,13.30
2023-04-09T16:36:22.322Z,13.25
2023-04-09T16:38:52.910Z,13.17
2023-04-09T16:41:23.236Z,13.11
2023-04-09T16:43:53.687Z,12.94
2023-04-09T16:46:26.619Z,12.70
2023-04-09T16:48:56.885Z,12.47
2023-04-09T16:51:27.362Z,12.13
2023-04-09T16:53:57.678Z,12.02
2023-04-09T16:56:28.250Z,11.80
2023-04-09T16:58:58.540Z,11.78
2023-04-09T17:01:31.750Z,11.68
2023-04-09T17:04:03.364Z,11.49
2023-04-09T17:06:33.709Z,11.46
2023-04-09T17:09:05.589Z,11.53
2023-04-09T17:11:35.826Z,11.54
2023-04-09T17:14:06.210Z,11.44
2023-04-09T17:16:39.441Z,11.41
2023-04-09T17:19:09.723Z,11.37
2023-04-09T17:21:39.961Z,11.24
2023-04-09T17:24:10.633Z,11.14
2023-04-09T17:26:40.933Z,11.12
2023-04-09T17:29:11.227Z,11.08
2023-04-09T17:31:44.224Z,11.16
2023-04-09T17:34:16.557Z,11.01
2023-04-09T17:36:49.785Z,11.00
2023-04-09T17:39:20.016Z,11.02
2023-04-09T17:41:50.237Z,11.08
2023-04-09T17:44:21.013Z,11.24
2023-04-09T17:46:54.275Z,11.33
2023-04-09T17:49:24.777Z,11.37
2023-04-09T17:51:55.130Z,11.41
2023-04-09T17:54:25.408Z,11.47
2023-04-09T17:56:57.225Z,11.42
2023-04-09T17:59:27.568Z,11.58
2023-04-09T18:02:00.686Z,11.70
2023-04-09T18:04:34.364Z,11.59
2023-04-09T18:07:04.996Z,11.48
2023-04-09T18:09:35.312Z,11.63
2023-04-09T18:12:05.636Z,11.63
2023-04-09T18:14:35.823Z,11.66
2023-04-09T18:17:08.611Z,11.74
2023-04-09T18:19:41.555Z,11.63
2023-04-09T18:22:11.901Z,11.63
2023-04-09T18:24:42.324Z,11.61
2023-04-09T18:27:12.578Z,11.69
2023-04-09T18:29:42.780Z,11.62
2023-04-09T18:32:15.693Z,11.72
2023-04-09T18:34:47.302Z,11.70
2023-04-09T18:37:17.640Z,11.69
2023-04-09T18:39:48.189Z,11.70
2023-04-09T18:42:18.366Z,11.71
2023-04-09T18:44:49.084Z,11.66
2023-04-09T18:47:21.944Z,11.57
2023-04-09T18:49:52.242Z,11.59
2023-04-09T18:52:22.602Z,11.46
2023-04-09T18:54:53.035Z,11.43
2023-04-09T18:57:23.395Z,11.40
2023-04-09T18:59:54.098Z,11.37
2023-04-09T19:02:28.385Z,11.38
2023-04-09T19:05:02.281Z,11.46
2023-04-09T19:07:33.980Z,11.39
2023-04-09T19:10:04.282Z,11.48
2023-04-09T19:12:34.611Z,11.52
2023-04-09T19:15:06.479Z,11.57
2023-04-09T19:17:39.447Z,11.52
2023-04-09T19:20:11.178Z,11.51
2023-04-09T19:22:41.635Z,11.59
2023-04-09T19:25:12.880Z,11.54
2023-04-09T19:27:43.418Z,11.57
2023-04-09T19:30:14.277Z,11.46
2023-04-09T19:32:48.954Z,11.46
2023-04-09T19:35:21.507Z,11.46
2023-04-09T19:37:54.300Z,11.46
2023-04-09T19:40:24.641Z,11.32
2023-04-09T19:42:56.300Z,11.29
2023-04-09T19:45:26.538Z,11.17
2023-04-09T19:47:59.685Z,11.20
2023-04-09T19:50:30.042Z,11.17
2023-04-09T19:53:00.173Z,10.98
2023-04-09T19:55:30.527Z,11.02
2023-04-09T19:58:00.922Z,11.07
2023-04-09T20:00:31.618Z,11.04
2023-04-09T20:03:06.124Z,10.86
2023-04-09T20:05:36.648Z,10.88
2023-04-09T20:08:12.255Z,10.81
2023-04-09T20:10:46.632Z,10.73
2023-04-09T20:13:16.964Z,10.68
2023-04-09T20:15:47.132Z,10.56
2023-04-09T20:18:20.000Z,10.66
2023-04-09T20:20:51.052Z,10.65
2023-04-09T20:23:20.982Z,10.73
2023-04-09T20:26:01.352Z,10.74
2023-04-09T20:28:31.612Z,10.68
2023-04-09T20:31:02.495Z,10.79
2023-04-09T20:33:35.886Z,10.91
2023-04-09T20:36:06.192Z,10.93
2023-04-09T20:38:36.584Z,10.95
2023-04-09T20:41:07.377Z,10.91
2023-04-09T20:43:38.791Z,10.90
2023-04-09T20:46:09.085Z,10.85
2023-04-09T20:48:42.005Z,10.81
2023-04-09T20:51:13.335Z,10.91
2023-04-09T20:53:44.053Z,10.87
2023-04-09T20:56:14.879Z,10.86
2023-04-09T20:58:45.646Z,10.85
2023-04-09T21:01:18.533Z,10.82
2023-04-09T21:03:52.973Z,10.86
2023-04-09T21:06:23.365Z,10.82
2023-04-09T21:08:56.931Z,10.81
2023-04-09T21:11:28.147Z,10.85
2023-04-09T21:13:58.483Z,10.87
2023-04-09T21:16:30.172Z,10.89
2023-04-09T21:19:07.394Z,10.81
2023-04-09T21:21:38.160Z,10.82
2023-04-09T21:24:08.597Z,10.78
2023-04-09T21:29:15.989Z,10.74
2023-04-09T21:31:46.222Z,10.66
2023-04-09T21:34:19.220Z,10.71
2023-04-09T21:36:49.491Z,10.68
2023-04-09T21:39:19.824Z,10.59
2023-04-09T21:41:50.151Z,10.50
2023-04-09T21:44:21.590Z,10.60
2023-04-09T21:46:52.570Z,10.44
2023-04-09T21:49:25.337Z,10.34
2023-04-09T21:51:57.011Z,10.33
2023-04-09T21:54:27.195Z,10.33
2023-04-09T21:56:57.393Z,10.36
2023-04-09T21:59:27.732Z,10.36
2023-04-09T22:01:58.114Z,10.35
2023-04-09T22:04:31.018Z,10.34
2023-04-09T22:07:01.496Z,10.28
2023-04-09T22:09:31.945Z,10.22
2023-04-09T22:12:03.018Z,10.17
2023-04-09T22:14:33.861Z,10.21
2023-04-09T22:17:04.918Z,10.18
2023-04-09T22:19:37.448Z,10.17
2023-04-09T22:22:09.350Z,10.11
2023-04-09T22:24:39.644Z,9.92
2023-04-09T22:27:10.284Z,10.00
2023-04-09T22:29:40.746Z,9.94
2023-04-09T22:32:12.366Z,9.84
2023-04-09T22:34:45.176Z,9.59
2023-04-09T22:37:17.364Z,9.67
2023-04-09T22:39:47.613Z,9.78
2023-04-09T22:42:17.863Z,9.78
2023-04-09T22:44:48.116Z,9.87
2023-04-09T22:47:18.394Z,9.85
2023-04-09T22:49:55.097Z,9.67
2023-04-09T22:52:25.547Z,9.64
2023-04-09T22:54:55.861Z,9.61
2023-04-09T22:57:26.031Z,9.52
2023-04-09T22:59:56.711Z,9.36
2023-04-09T23:02:27.536Z,9.21
2023-04-09T23:05:02.333Z,9.18
2023-04-09T23:07:32.616Z,9.16
2023-04-09T23:10:03.191Z,9.07
2023-04-09T23:12:33.418Z,8.99
2023-04-09T23:15:07.362Z,9.02
2023-04-09T23:17:37.943Z,9.03
2023-04-09T23:20:13.961Z,9.12
2023-04-09T23:22:44.226Z,9.12
2023-04-09T23:25:14.991Z,9.04
2023-04-09T23:27:46.843Z,8.94
2023-04-09T23:30:20.619Z,8.96
2023-04-09T23:32:53.273Z,8.98
2023-04-09T23:35:27.063Z,8.91
2023-04-09T23:37:57.373Z,8.73
2023-04-09T23:40:27.729Z,8.63
2023-04-09T23:42:58.177Z,8.71
2023-04-09T23:45:28.426Z,8.68
2023-04-09T23:47:58.706Z,8.52
2023-04-09T23:50:31.773Z,8.49
2023-04-09T23:53:04.045Z,8.51
2023-04-09T23:55:38.358Z,8.50
2023-04-09T23:58:08.689Z,8.45
